Time;durP1;ratioP1;P1;durP2;ratioP2;P2;SDS_P1;SDS_P2;PMS_P1;PMS_P2;Temp;Humidity;BMP_temperature;BMP_pressure;BME280_temperature;BME280_humidity;BME280_pressure;Samples;Min_cycle;Max_cycle;Signal;HPM_P1;HPM_P2
2022/02/21 00:00:08;;;;;;;;;8.25;6.00;;;;;;;;4996896;28;45387;-82
2022/02/21 00:02:34;;;;;;;;;9.75;5.00;;;;;;;;4997597;28;45337;-82
2022/02/21 00:04:59;;;;;;;;;9.50;5.25;;;;;;;;4997302;28;45430;-81
2022/02/21 00:07:24;;;;;;;;;12.00;5.25;;;;;;;;4997496;28;46442;-80
2022/02/21 00:09:49;;;;;;;;;5.50;4.50;;;;;;;;4996610;28;45469;-82
2022/02/21 00:12:14;;;;;;;;;6.00;2.00;;;;;;;;4996053;28;45293;-80
2022/02/21 00:14:40;;;;;;;;;6.75;4.75;;;;;;;;4996795;28;45427;-81
2022/02/21 00:17:05;;;;;;;;;5.75;4.50;;;;;;;;4997039;28;47254;-81
2022/02/21 00:19:30;;;;;;;;;5.00;4.00;;;;;;;;4997485;28;45476;-81
2022/02/21 00:21:55;;;;;;;;;10.25;4.50;;;;;;;;4996651;28;45818;-82
2022/02/21 00:24:20;;;;;;;;;4.25;2.00;;;;;;;;4997423;28;45373;-81
2022/02/21 00:26:46;;;;;;;;;8.50;4.00;;;;;;;;4996957;28;45429;-81
2022/02/21 00:29:11;;;;;;;;;3.25;2.25;;;;;;;;4996641;28;45509;-81
2022/02/21 00:31:37;;;;;;;;;4.75;4.00;;;;;;;;4997313;28;45416;-81
2022/02/21 00:34:02;;;;;;;;;5.50;3.00;;;;;;;;4996657;28;45357;-83
2022/02/21 00:36:27;;;;;;;;;3.75;2.00;;;;;;;;4996613;28;46379;-82
2022/02/21 00:38:52;;;;;;;;;5.00;3.50;;;;;;;;4996907;28;45440;-83
2022/02/21 00:41:17;;;;;;;;;3.75;3.75;;;;;;;;4997070;28;45266;-82
2022/02/21 00:43:43;;;;;;;;;6.00;3.00;;;;;;;;4997004;28;45353;-81
2022/02/21 00:46:08;;;;;;;;;0.75;0.50;;;;;;;;4996634;28;45484;-80
2022/02/21 00:48:33;;;;;;;;;2.00;1.75;;;;;;;;4996371;28;45533;-82
2022/02/21 00:50:58;;;;;;;;;3.00;1.25;;;;;;;;4996355;28;45400;-82
2022/02/21 00:53:23;;;;;;;;;1.00;1.00;;;;;;;;4996471;28;45286;-82
2022/02/21 00:55:50;;;;;;;;;5.25;3.75;;;;;;;;4996612;28;46247;-81
2022/02/21 00:58:15;;;;;;;;;5.50;3.50;;;;;;;;4995591;28;45384;-81
2022/02/21 01:00:40;;;;;;;;;2.75;1.50;;;;;;;;4996056;28;45599;-81
2022/02/21 01:03:06;;;;;;;;;2.00;2.00;;;;;;;;4996056;28;45448;-82
2022/02/21 01:05:31;;;;;;;;;3.00;1.50;;;;;;;;4996151;28;45504;-81
2022/02/21 01:07:56;;;;;;;;;1.50;1.25;;;;;;;;4996659;28;45412;-80
2022/02/21 01:10:21;;;;;;;;;1.00;1.00;;;;;;;;4996708;28;45497;-80
2022/02/21 01:12:47;;;;;;;;;4.50;1.25;;;;;;;;4996093;28;45322;-79
2022/02/21 01:15:14;;;;;;;;;4.75;1.25;;;;;;;;4995981;28;45503;-82
2022/02/21 01:17:40;;;;;;;;;5.75;1.75;;;;;;;;4996080;28;45950;-81
2022/02/21 01:20:06;;;;;;;;;3.50;1.75;;;;;;;;4996323;28;45417;-81
2022/02/21 01:22:32;;;;;;;;;3.50;0.00;;;;;;;;4996925;28;45626;-81
2022/02/21 01:24:57;;;;;;;;;2.00;2.00;;;;;;;;4995367;28;47238;-82
2022/02/21 01:27:22;;;;;;;;;2.00;1.00;;;;;;;;4995725;28;45274;-81
2022/02/21 01:29:47;;;;;;;;;1.25;1.25;;;;;;;;4996111;28;45453;-80
2022/02/21 01:32:13;;;;;;;;;1.00;1.00;;;;;;;;4996040;28;45363;-81
2022/02/21 01:34:38;;;;;;;;;0.25;0.25;;;;;;;;4996361;28;46583;-82
2022/02/21 01:37:04;;;;;;;;;2.00;2.00;;;;;;;;4995977;28;45443;-81
2022/02/21 01:39:29;;;;;;;;;1.00;1.00;;;;;;;;4996102;28;45469;-81
2022/02/21 01:41:54;;;;;;;;;3.75;2.00;;;;;;;;4995867;28;45414;-81
2022/02/21 01:44:19;;;;;;;;;1.75;1.00;;;;;;;;4995712;28;46085;-82
2022/02/21 01:46:45;;;;;;;;;1.00;1.00;;;;;;;;4996575;28;45285;-81
2022/02/21 01:49:11;;;;;;;;;2.00;0.00;;;;;;;;4995984;28;45345;-82
2022/02/21 01:51:38;;;;;;;;;0.00;0.00;;;;;;;;4995985;28;45353;-81
2022/02/21 01:54:05;;;;;;;;;2.00;0.50;;;;;;;;4995518;28;47290;-81
2022/02/21 01:56:30;;;;;;;;;1.50;1.00;;;;;;;;4995327;28;45432;-81
2022/02/21 01:58:55;;;;;;;;;2.50;0.00;;;;;;;;4996261;28;45485;-81
2022/02/21 02:01:20;;;;;;;;;0.75;0.00;;;;;;;;4995660;28;45584;-82
2022/02/21 02:03:48;;;;;;;;;0.25;0.25;;;;;;;;4995196;28;46227;-81
2022/02/21 02:06:14;;;;;;;;;1.00;1.00;;;;;;;;4995387;28;45365;-82
2022/02/21 02:08:39;;;;;;;;;0.00;0.00;;;;;;;;4995275;28;45447;-81
2022/02/21 02:11:05;;;;;;;;;2.00;0.00;;;;;;;;4995777;28;45401;-81
2022/02/21 02:13:30;;;;;;;;;0.75;0.00;;;;;;;;4996018;28;45687;-81
2022/02/21 02:15:55;;;;;;;;;1.00;1.00;;;;;;;;4995325;28;45440;-81
2022/02/21 02:18:21;;;;;;;;;1.00;1.00;;;;;;;;4995313;28;45342;-80
2022/02/21 02:20:46;;;;;;;;;1.50;1.00;;;;;;;;4995106;28;45256;-81
2022/02/21 02:23:11;;;;;;;;;1.00;1.00;;;;;;;;4994975;28;45575;-81
2022/02/21 02:25:36;;;;;;;;;1.25;0.00;;;;;;;;4995292;28;45366;-81
2022/02/21 02:28:02;;;;;;;;;0.75;0.75;;;;;;;;4994950;28;45501;-81
2022/02/21 02:30:27;;;;;;;;;4.25;1.75;;;;;;;;4994898;28;45456;-81
2022/02/21 02:32:54;;;;;;;;;2.25;1.00;;;;;;;;4994877;28;45590;-81
2022/02/21 02:35:19;;;;;;;;;2.25;1.00;;;;;;;;4993916;28;45888;-81
2022/02/21 02:37:45;;;;;;;;;1.50;1.50;;;;;;;;4995347;28;45461;-81
2022/02/21 02:40:10;;;;;;;;;3.00;2.00;;;;;;;;4994708;28;45379;-82
2022/02/21 02:42:35;;;;;;;;;2.00;2.00;;;;;;;;4994578;28;45408;-81
2022/02/21 02:45:00;;;;;;;;;3.25;2.00;;;;;;;;4994519;28;45432;-81
2022/02/21 02:47:25;;;;;;;;;5.50;3.25;;;;;;;;5010033;28;45472;-81
2022/02/21 02:49:51;;;;;;;;;3.25;3.00;;;;;;;;4995515;28;45395;-81
2022/02/21 02:52:16;;;;;;;;;1.75;1.75;;;;;;;;5009648;28;48292;-81
2022/02/21 02:54:41;;;;;;;;;2.00;1.50;;;;;;;;4994220;28;45338;-81
2022/02/21 02:57:07;;;;;;;;;5.25;3.25;;;;;;;;4994843;28;45326;-81
2022/02/21 02:59:32;;;;;;;;;3.75;3.00;;;;;;;;4995112;28;45481;-80
2022/02/21 03:01:57;;;;;;;;;3.25;1.50;;;;;;;;4995248;28;45345;-81
2022/02/21 03:04:23;;;;;;;;;5.50;2.25;;;;;;;;4995665;28;45295;-80
2022/02/21 03:06:48;;;;;;;;;4.00;2.75;;;;;;;;4995446;28;45443;-82
2022/02/21 03:09:13;;;;;;;;;9.00;6.00;;;;;;;;4994563;28;45397;-82
2022/02/21 03:11:38;;;;;;;;;4.50;2.00;;;;;;;;4995361;28;47052;-81
2022/02/21 03:14:04;;;;;;;;;10.25;4.00;;;;;;;;4977223;28;45309;-82
2022/02/21 03:16:29;;;;;;;;;10.75;5.00;;;;;;;;4995241;28;45432;-81
2022/02/21 03:18:54;;;;;;;;;5.00;2.25;;;;;;;;4994131;28;45481;-81
2022/02/21 03:21:20;;;;;;;;;6.25;4.00;;;;;;;;4994355;28;47867;-81
2022/02/21 03:23:45;;;;;;;;;4.75;4.75;;;;;;;;4993926;28;45696;-82
2022/02/21 03:26:10;;;;;;;;;9.00;6.00;;;;;;;;4994653;28;45299;-81
2022/02/21 03:28:35;;;;;;;;;5.50;3.00;;;;;;;;4995020;28;45432;-81
2022/02/21 03:31:01;;;;;;;;;8.50;4.00;;;;;;;;4993899;28;45530;-81
2022/02/21 03:33:26;;;;;;;;;2.00;1.25;;;;;;;;4994171;28;45610;-81
2022/02/21 03:35:51;;;;;;;;;3.25;2.00;;;;;;;;4994019;28;45258;-81
2022/02/21 03:38:16;;;;;;;;;6.50;3.25;;;;;;;;4993950;28;47090;-81
2022/02/21 03:40:42;;;;;;;;;3.50;1.00;;;;;;;;4994597;28;46265;-81
2022/02/21 03:43:08;;;;;;;;;7.00;4.00;;;;;;;;4993811;28;45341;-80
2022/02/21 03:45:33;;;;;;;;;5.50;3.00;;;;;;;;4994190;28;45362;-81
2022/02/21 03:47:58;;;;;;;;;3.00;2.50;;;;;;;;4996946;28;45591;-81
2022/02/21 03:50:23;;;;;;;;;7.00;4.00;;;;;;;;4997260;28;45723;-81
2022/02/21 03:52:49;;;;;;;;;10.50;3.75;;;;;;;;4997534;28;45355;-80
2022/02/21 03:55:14;;;;;;;;;4.25;2.25;;;;;;;;4997225;28;45408;-81
2022/02/21 03:57:39;;;;;;;;;4.75;4.25;;;;;;;;4997170;28;45428;-80
2022/02/21 04:00:07;;;;;;;;;5.50;3.50;;;;;;;;4997152;28;45529;-80
2022/02/21 04:02:32;;;;;;;;;2.75;2.75;;;;;;;;4979338;28;45667;-80
2022/02/21 04:05:00;;;;;;;;;6.00;4.00;;;;;;;;4997465;28;45259;-81
2022/02/21 04:07:26;;;;;;;;;3.25;1.75;;;;;;;;4996636;28;45437;-81
2022/02/21 04:09:51;;;;;;;;;4.00;3.25;;;;;;;;4996873;28;45461;-81
2022/02/21 04:12:16;;;;;;;;;4.00;2.00;;;;;;;;4997359;28;45397;-80
2022/02/21 04:14:41;;;;;;;;;5.50;4.50;;;;;;;;4997322;28;45327;-81
2022/02/21 04:17:06;;;;;;;;;3.25;2.00;;;;;;;;4996926;28;45476;-80
2022/02/21 04:19:32;;;;;;;;;4.25;2.25;;;;;;;;4996516;28;47119;-80
2022/02/21 04:21:59;;;;;;;;;3.00;2.00;;;;;;;;4996452;28;45424;-81
2022/02/21 04:24:24;;;;;;;;;6.00;2.75;;;;;;;;4996936;28;45448;-81
2022/02/21 04:26:49;;;;;;;;;6.00;3.00;;;;;;;;4996816;28;45433;-81
2022/02/21 04:29:14;;;;;;;;;2.75;1.00;;;;;;;;4996456;28;45538;-82
2022/02/21 04:31:39;;;;;;;;;4.25;2.00;;;;;;;;4979645;28;45270;-81
2022/02/21 04:34:04;;;;;;;;;5.00;2.50;;;;;;;;5011791;28;45276;-80
2022/02/21 04:36:33;;;;;;;;;6.25;2.00;;;;;;;;4996942;28;45296;-81
2022/02/21 04:38:58;;;;;;;;;6.00;2.75;;;;;;;;4996800;28;46338;-81
2022/02/21 04:41:23;;;;;;;;;3.75;1.75;;;;;;;;4996787;28;45552;-81
2022/02/21 04:43:49;;;;;;;;;2.25;1.75;;;;;;;;4997268;28;45354;-81
2022/02/21 04:46:14;;;;;;;;;5.25;1.50;;;;;;;;4996472;28;45593;-81
2022/02/21 04:48:40;;;;;;;;;0.50;0.50;;;;;;;;4996072;28;45396;-81
2022/02/21 04:51:05;;;;;;;;;2.50;1.25;;;;;;;;4996424;28;45492;-81
2022/02/21 04:53:30;;;;;;;;;8.25;1.75;;;;;;;;4996608;28;45300;-81
2022/02/21 04:55:55;;;;;;;;;0.00;0.00;;;;;;;;4996551;28;45350;-81
2022/02/21 04:58:20;;;;;;;;;7.25;3.50;;;;;;;;4995445;28;46333;-80
2022/02/21 05:00:46;;;;;;;;;1.00;0.00;;;;;;;;4996313;28;45599;-80
2022/02/21 05:03:11;;;;;;;;;3.00;1.00;;;;;;;;4996054;28;45292;-82
2022/02/21 05:05:36;;;;;;;;;3.75;2.00;;;;;;;;4996443;28;45405;-81
2022/02/21 05:08:02;;;;;;;;;4.00;2.75;;;;;;;;4995741;28;47013;-81
2022/02/21 05:10:28;;;;;;;;;2.50;1.75;;;;;;;;4996092;28;45549;-81
2022/02/21 05:12:53;;;;;;;;;3.00;1.00;;;;;;;;4995803;28;45359;-81
2022/02/21 05:15:19;;;;;;;;;1.75;0.00;;;;;;;;4995783;28;45321;-81
2022/02/21 05:17:44;;;;;;;;;4.00;1.25;;;;;;;;4995331;28;45501;-81
2022/02/21 05:20:13;;;;;;;;;2.50;1.75;;;;;;;;4995699;28;45484;-81
2022/02/21 05:22:38;;;;;;;;;5.00;1.50;;;;;;;;4996147;28;45377;-79
2022/02/21 05:25:04;;;;;;;;;1.00;1.00;;;;;;;;4995868;28;45486;-81
2022/02/21 05:27:34;;;;;;;;;0.00;0.00;;;;;;;;4995395;28;48066;-81
2022/02/21 05:29:59;;;;;;;;;2.75;1.50;;;;;;;;4994966;28;45527;-81
2022/02/21 05:32:25;;;;;;;;;2.25;1.00;;;;;;;;4995320;28;45450;-81
2022/02/21 05:34:50;;;;;;;;;3.50;1.50;;;;;;;;4992186;28;45502;-81
2022/02/21 05:37:16;;;;;;;;;1.00;0.00;;;;;;;;4995453;28;46190;-81
2022/02/21 05:39:41;;;;;;;;;5.25;2.25;;;;;;;;4994763;28;45444;-81
2022/02/21 05:42:06;;;;;;;;;2.25;1.00;;;;;;;;4995230;28;45338;-82
2022/02/21 05:44:31;;;;;;;;;2.25;1.00;;;;;;;;4995145;28;45433;-81
2022/02/21 05:46:57;;;;;;;;;3.00;2.00;;;;;;;;4994942;28;46066;-81
2022/02/21 05:49:22;;;;;;;;;4.00;2.75;;;;;;;;4995480;28;45211;-82
2022/02/21 05:51:47;;;;;;;;;3.25;1.25;;;;;;;;4995303;28;45434;-81
2022/02/21 05:54:12;;;;;;;;;4.75;2.00;;;;;;;;4995110;28;45322;-81
2022/02/21 05:56:38;;;;;;;;;5.00;2.00;;;;;;;;4996122;28;45334;-82
2022/02/21 05:59:03;;;;;;;;;1.25;1.00;;;;;;;;4996173;28;45260;-82
2022/02/21 06:01:28;;;;;;;;;3.75;2.00;;;;;;;;4996034;28;45489;-81
2022/02/21 06:03:53;;;;;;;;;4.25;0.75;;;;;;;;4996353;28;45406;-82
2022/02/21 06:06:19;;;;;;;;;1.00;1.00;;;;;;;;4995423;28;45436;-81
2022/02/21 06:08:44;;;;;;;;;2.25;1.00;;;;;;;;4995492;28;45557;-82
2022/02/21 06:11:09;;;;;;;;;7.75;2.00;;;;;;;;4993477;28;45447;-82
2022/02/21 06:13:34;;;;;;;;;1.75;1.00;;;;;;;;4995382;28;45255;-82
2022/02/21 06:16:00;;;;;;;;;1.00;0.00;;;;;;;;4994193;28;46217;-82
2022/02/21 06:18:26;;;;;;;;;1.00;1.00;;;;;;;;4994194;28;45539;-81
2022/02/21 06:20:51;;;;;;;;;0.00;0.00;;;;;;;;4994434;28;45517;-82
2022/02/21 06:23:16;;;;;;;;;0.00;0.00;;;;;;;;4994076;28;45480;-81
2022/02/21 06:25:42;;;;;;;;;3.75;0.00;;;;;;;;4994757;28;45905;-81
2022/02/21 06:28:07;;;;;;;;;1.50;0.00;;;;;;;;4995094;28;45377;-80
2022/02/21 06:30:33;;;;;;;;;2.50;1.25;;;;;;;;4996446;28;45498;-81
2022/02/21 06:32:58;;;;;;;;;0.75;0.00;;;;;;;;4995464;28;45516;-81
2022/02/21 06:35:23;;;;;;;;;1.25;0.50;;;;;;;;4996950;28;47616;-81
2022/02/21 06:37:55;;;;;;;;;2.75;2.75;;;;;;;;4996134;28;45517;-82
2022/02/21 06:40:21;;;;;;;;;4.25;1.75;;;;;;;;4997815;28;45575;-83
2022/02/21 06:42:48;;;;;;;;;2.75;1.75;;;;;;;;4995372;28;45377;-82
2022/02/21 06:45:13;;;;;;;;;0.00;0.00;;;;;;;;4994110;28;46722;-82
2022/02/21 06:47:38;;;;;;;;;0.25;0.25;;;;;;;;4993973;28;45294;-81
2022/02/21 06:50:06;;;;;;;;;0.00;0.00;;;;;;;;4993720;28;45247;-81
2022/02/21 06:52:31;;;;;;;;;1.50;1.25;;;;;;;;4993874;28;45346;-81
2022/02/21 06:54:57;;;;;;;;;2.00;0.50;;;;;;;;4993676;28;45426;-82
2022/02/21 06:57:23;;;;;;;;;0.00;0.00;;;;;;;;4993850;28;45493;-82
2022/02/21 06:59:48;;;;;;;;;2.75;0.75;;;;;;;;4993661;28;45515;-80
2022/02/21 07:02:13;;;;;;;;;1.00;1.00;;;;;;;;4993564;28;45298;-82
2022/02/21 07:04:38;;;;;;;;;1.50;0.50;;;;;;;;4993668;28;45440;-81
2022/02/21 07:07:04;;;;;;;;;0.00;0.00;;;;;;;;4993490;28;45411;-81
2022/02/21 07:09:29;;;;;;;;;2.50;0.00;;;;;;;;4994910;28;45424;-82
2022/02/21 07:11:54;;;;;;;;;3.50;0.25;;;;;;;;4994309;28;45554;-82
2022/02/21 07:14:22;;;;;;;;;0.00;0.00;;;;;;;;4993221;28;45328;-81
2022/02/21 07:16:47;;;;;;;;;1.50;0.50;;;;;;;;4994313;28;45513;-82
2022/02/21 07:19:13;;;;;;;;;1.75;1.50;;;;;;;;4993398;28;45319;-82
2022/02/21 07:21:38;;;;;;;;;2.00;1.50;;;;;;;;4995004;28;45543;-81
2022/02/21 07:24:03;;;;;;;;;1.00;1.00;;;;;;;;4996813;28;45566;-83
2022/02/21 07:26:29;;;;;;;;;4.25;1.25;;;;;;;;4997233;28;45361;-82
2022/02/21 07:28:54;;;;;;;;;3.00;1.00;;;;;;;;4997577;28;45385;-82
2022/02/21 07:31:19;;;;;;;;;4.50;1.50;;;;;;;;4996992;28;45751;-82
2022/02/21 07:33:44;;;;;;;;;5.50;2.00;;;;;;;;4997014;28;45940;-82
2022/02/21 07:36:09;;;;;;;;;2.50;0.50;;;;;;;;4996440;28;45349;-83
2022/02/21 07:38:35;;;;;;;;;3.50;0.75;;;;;;;;4996962;28;45432;-82
2022/02/21 07:41:01;;;;;;;;;2.75;1.00;;;;;;;;4997026;28;45567;-82
2022/02/21 07:43:26;;;;;;;;;1.00;1.00;;;;;;;;4997660;28;46024;-81
2022/02/21 07:45:52;;;;;;;;;5.50;3.00;;;;;;;;5000615;28;45372;-83
2022/02/21 07:48:17;;;;;;;;;1.75;1.00;;;;;;;;4996693;28;45270;-82
2022/02/21 07:50:42;;;;;;;;;3.00;1.25;;;;;;;;4996528;28;45362;-82
2022/02/21 07:53:08;;;;;;;;;4.25;2.25;;;;;;;;4978695;28;48648;-81
2022/02/21 07:55:33;;;;;;;;;2.50;2.00;;;;;;;;4996764;28;45338;-82
2022/02/21 07:57:58;;;;;;;;;4.50;3.50;;;;;;;;4995945;28;45388;-82
2022/02/21 08:00:24;;;;;;;;;4.75;2.50;;;;;;;;4996945;28;45270;-82
2022/02/21 08:02:49;;;;;;;;;0.25;0.25;;;;;;;;4996594;28;46523;-82
2022/02/21 08:05:15;;;;;;;;;1.25;1.25;;;;;;;;4996295;28;45425;-80
2022/02/21 08:07:41;;;;;;;;;8.50;3.00;;;;;;;;4996364;28;45323;-81
2022/02/21 08:10:06;;;;;;;;;6.75;1.00;;;;;;;;4995381;28;45457;-81
2022/02/21 08:12:32;;;;;;;;;4.25;3.00;;;;;;;;4995182;28;45668;-81
2022/02/21 08:14:57;;;;;;;;;3.75;3.75;;;;;;;;4996017;28;45364;-81
2022/02/21 08:17:23;;;;;;;;;4.00;2.75;;;;;;;;4980615;28;45319;-82
2022/02/21 08:19:48;;;;;;;;;4.00;2.00;;;;;;;;4997068;28;45275;-81
2022/02/21 08:22:13;;;;;;;;;4.00;2.75;;;;;;;;4996164;28;46013;-81
2022/02/21 08:24:39;;;;;;;;;2.50;2.25;;;;;;;;4996311;28;45490;-80
2022/02/21 08:27:04;;;;;;;;;5.00;2.00;;;;;;;;4997900;28;45511;-81
2022/02/21 08:29:32;;;;;;;;;3.75;2.50;;;;;;;;5001416;28;45380;-82
2022/02/21 08:31:57;;;;;;;;;2.75;1.00;;;;;;;;4996693;28;46186;-82
2022/02/21 08:34:24;;;;;;;;;2.50;2.00;;;;;;;;4993681;28;45260;-81
2022/02/21 08:36:50;;;;;;;;;4.25;3.00;;;;;;;;4994822;28;45355;-81
2022/02/21 08:39:15;;;;;;;;;4.50;3.00;;;;;;;;4995145;28;45668;-81
2022/02/21 08:41:41;;;;;;;;;6.25;3.25;;;;;;;;4994688;28;46274;-82
2022/02/21 08:44:07;;;;;;;;;4.00;2.50;;;;;;;;4995083;28;45320;-81
2022/02/21 08:46:32;;;;;;;;;7.75;4.75;;;;;;;;4995650;28;45383;-81
2022/02/21 08:49:02;;;;;;;;;5.50;2.50;;;;;;;;4995317;28;45306;-82
2022/02/21 08:51:27;;;;;;;;;1.50;1.50;;;;;;;;4995278;28;46104;-81
2022/02/21 08:53:53;;;;;;;;;8.50;5.00;;;;;;;;4994737;28;45295;-82
2022/02/21 08:56:18;;;;;;;;;4.00;2.25;;;;;;;;4994625;28;45459;-80
2022/02/21 08:58:43;;;;;;;;;5.50;3.75;;;;;;;;4995581;28;45275;-80
2022/02/21 09:01:08;;;;;;;;;3.00;2.00;;;;;;;;4994957;28;46712;-81
2022/02/21 09:03:33;;;;;;;;;5.25;3.50;;;;;;;;4994586;28;45420;-82
2022/02/21 09:05:59;;;;;;;;;4.00;3.00;;;;;;;;4994601;28;45504;-82
2022/02/21 09:08:25;;;;;;;;;4.50;3.00;;;;;;;;4995203;28;45451;-81
2022/02/21 09:10:50;;;;;;;;;4.25;3.25;;;;;;;;4995285;28;46999;-81
2022/02/21 09:13:16;;;;;;;;;3.50;3.50;;;;;;;;4994874;28;45453;-81
2022/02/21 09:15:42;;;;;;;;;4.00;3.00;;;;;;;;4995949;28;45484;-81
2022/02/21 09:18:08;;;;;;;;;6.75;2.25;;;;;;;;4994865;28;45480;-81
2022/02/21 09:20:35;;;;;;;;;5.75;3.25;;;;;;;;4994574;28;46269;-81
2022/02/21 09:23:00;;;;;;;;;5.75;3.75;;;;;;;;4994825;28;45410;-80
2022/02/21 09:25:25;;;;;;;;;3.00;1.25;;;;;;;;4994496;28;45363;-81
2022/02/21 09:27:52;;;;;;;;;2.00;1.00;;;;;;;;4994405;28;45504;-81
2022/02/21 09:30:17;;;;;;;;;3.25;2.00;;;;;;;;4994017;28;45799;-82
2022/02/21 09:32:42;;;;;;;;;2.00;0.00;;;;;;;;4994679;28;45279;-81
2022/02/21 09:35:07;;;;;;;;;3.25;2.00;;;;;;;;4994513;28;45275;-81
2022/02/21 09:37:35;;;;;;;;;3.50;1.50;;;;;;;;4995135;28;45663;-81
2022/02/21 09:40:01;;;;;;;;;3.50;2.50;;;;;;;;4993940;28;46202;-81
2022/02/21 09:42:26;;;;;;;;;3.25;1.75;;;;;;;;4993702;28;45562;-81
2022/02/21 09:44:52;;;;;;;;;4.25;3.75;;;;;;;;4994062;28;45535;-82
2022/02/21 09:47:17;;;;;;;;;3.75;1.75;;;;;;;;4994066;28;45425;-80
2022/02/21 09:49:43;;;;;;;;;2.50;1.25;;;;;;;;4994719;28;46095;-80
2022/02/21 09:52:08;;;;;;;;;3.25;3.25;;;;;;;;4994631;28;45341;-81
2022/02/21 09:54:33;;;;;;;;;2.75;1.00;;;;;;;;4994038;28;45480;-82
2022/02/21 09:56:58;;;;;;;;;2.50;2.25;;;;;;;;4994490;28;45414;-82
2022/02/21 09:59:24;;;;;;;;;2.75;2.00;;;;;;;;4994089;28;46001;-81
2022/02/21 10:01:50;;;;;;;;;7.25;3.00;;;;;;;;5009694;28;45440;-81
2022/02/21 10:04:26;;;;;;;;;4.50;2.25;;;;;;;;4994163;28;45353;-82
2022/02/21 10:06:51;;;;;;;;;3.75;2.00;;;;;;;;4993745;28;45531;-80
2022/02/21 10:09:17;;;;;;;;;3.25;2.25;;;;;;;;4993209;28;46954;-81
2022/02/21 10:11:46;;;;;;;;;1.00;1.00;;;;;;;;4993908;28;45230;-81
2022/02/21 10:14:13;;;;;;;;;12.25;6.00;;;;;;;;4994152;28;45225;-81
2022/02/21 10:16:39;;;;;;;;;4.00;3.00;;;;;;;;4994508;28;45492;-81
2022/02/21 10:19:11;;;;;;;;;6.00;5.25;;;;;;;;4993259;28;46236;-79
2022/02/21 10:21:57;;;;;;;;;10.75;8.00;;;;;;;;4975381;28;45525;-81
2022/02/21 10:24:22;;;;;;;;;16.75;9.25;;;;;;;;4992793;28;45511;-80
2022/02/21 10:26:47;;;;;;;;;9.75;8.75;;;;;;;;4993188;28;45436;-79
2022/02/21 10:29:13;;;;;;;;;4.75;4.75;;;;;;;;4993889;28;45438;-81
2022/02/21 10:31:38;;;;;;;;;7.25;3.50;;;;;;;;4993911;28;45356;-80
2022/02/21 10:34:04;;;;;;;;;1.00;1.00;;;;;;;;4993344;28;45360;-81
2022/02/21 10:36:40;;;;;;;;;3.75;2.75;;;;;;;;4993550;28;45394;-80
2022/02/21 10:39:07;;;;;;;;;4.50;2.50;;;;;;;;4992889;28;46256;-81
2022/02/21 10:41:43;;;;;;;;;5.50;2.50;;;;;;;;4993340;28;47710;-81
2022/02/21 10:44:22;;;;;;;;;3.50;3.00;;;;;;;;4993294;28;45207;-83
2022/02/21 10:47:00;;;;;;;;;4.25;3.00;;;;;;;;4993224;28;45396;-76
2022/02/21 10:49:25;;;;;;;;;3.25;3.00;;;;;;;;4993014;28;45357;-81
2022/02/21 10:51:50;;;;;;;;;4.50;1.75;;;;;;;;4992035;28;45376;-80
2022/02/21 10:54:16;;;;;;;;;8.25;4.25;;;;;;;;4993219;28;45493;-80
2022/02/21 10:56:44;;;;;;;;;4.75;3.50;;;;;;;;4994351;28;45402;-81
2022/02/21 10:59:22;;;;;;;;;3.00;1.75;;;;;;;;4996421;28;47161;-80
2022/02/21 11:01:48;;;;;;;;;3.00;1.75;;;;;;;;4996187;28;45526;-78
2022/02/21 11:04:13;;;;;;;;;5.25;2.75;;;;;;;;4996677;28;45504;-78
2022/02/21 11:06:39;;;;;;;;;10.25;5.75;;;;;;;;4995652;28;45577;-80
2022/02/21 11:09:04;;;;;;;;;8.50;5.25;;;;;;;;4995869;28;46107;-79
2022/02/21 11:11:32;;;;;;;;;2.25;1.75;;;;;;;;4996705;28;45443;-80
2022/02/21 11:13:58;;;;;;;;;2.00;1.00;;;;;;;;4996906;28;45358;-74
2022/02/21 11:16:23;;;;;;;;;4.50;4.50;;;;;;;;4996586;28;45573;-76
2022/02/21 11:18:49;;;;;;;;;7.75;3.00;;;;;;;;4996027;28;46119;-77
2022/02/21 11:21:15;;;;;;;;;6.50;2.00;;;;;;;;4995540;28;45156;-79
2022/02/21 11:23:40;;;;;;;;;7.00;3.75;;;;;;;;4996328;28;45354;-77
2022/02/21 11:26:12;;;;;;;;;7.25;6.00;;;;;;;;4995800;28;45227;-75
2022/02/21 11:28:51;;;;;;;;;4.75;4.75;;;;;;;;4993914;28;46402;-75
2022/02/21 11:31:20;;;;;;;;;4.50;2.50;;;;;;;;4990664;28;45382;-75
2022/02/21 11:34:09;;;;;;;;;3.25;3.00;;;;;;;;4994767;28;45663;-76
2022/02/21 11:36:35;;;;;;;;;2.50;2.25;;;;;;;;4995226;28;45303;-76
2022/02/21 11:39:18;;;;;;;;;5.00;0.75;;;;;;;;4994784;28;46883;-77
2022/02/21 11:41:43;;;;;;;;;7.00;3.50;;;;;;;;4994697;28;45416;-76
2022/02/21 11:44:18;;;;;;;;;2.75;2.25;;;;;;;;4994668;28;45264;-77
2022/02/21 11:46:43;;;;;;;;;3.25;3.25;;;;;;;;4994483;28;45447;-74
2022/02/21 11:49:08;;;;;;;;;3.50;2.75;;;;;;;;4994571;28;45320;-76
2022/02/21 11:51:42;;;;;;;;;5.75;4.25;;;;;;;;4995336;28;45352;-75
2022/02/21 11:54:10;;;;;;;;;7.25;3.25;;;;;;;;4995177;28;45318;-78
2022/02/21 11:56:48;;;;;;;;;3.00;3.00;;;;;;;;4995178;28;45591;-78
2022/02/21 11:59:22;;;;;;;;;6.75;5.25;;;;;;;;4994285;28;47242;-77
2022/02/21 12:01:48;;;;;;;;;6.25;4.00;;;;;;;;4995567;28;45393;-79
2022/02/21 12:04:17;;;;;;;;;5.75;3.25;;;;;;;;4994226;28;45387;-77
2022/02/21 12:06:53;;;;;;;;;9.00;7.00;;;;;;;;4994864;28;45468;-74
2022/02/21 12:09:18;;;;;;;;;8.25;2.75;;;;;;;;4994599;28;45909;-76
2022/02/21 12:11:43;;;;;;;;;7.00;3.50;;;;;;;;4994912;28;45255;-75
2022/02/21 12:14:11;;;;;;;;;6.75;4.00;;;;;;;;4995171;28;45329;-75
2022/02/21 12:16:57;;;;;;;;;3.25;3.00;;;;;;;;4993708;28;45328;-75
2022/02/21 12:19:25;;;;;;;;;3.50;3.50;;;;;;;;4989442;28;46353;-76
2022/02/21 12:22:11;;;;;;;;;5.00;3.75;;;;;;;;4994423;28;45489;-77
2022/02/21 12:24:56;;;;;;;;;5.75;4.00;;;;;;;;4976646;28;45588;-77
2022/02/21 12:27:21;;;;;;;;;8.00;6.00;;;;;;;;4995348;28;45489;-76
2022/02/21 12:29:46;;;;;;;;;4.75;3.50;;;;;;;;4994767;28;46187;-76
2022/02/21 12:32:12;;;;;;;;;3.75;3.75;;;;;;;;4994829;28;45481;-77
2022/02/21 12:34:38;;;;;;;;;4.00;3.25;;;;;;;;4994654;28;45419;-77
2022/02/21 12:37:12;;;;;;;;;2.00;2.00;;;;;;;;4994004;28;45413;-77
2022/02/21 12:39:43;;;;;;;;;5.75;4.00;;;;;;;;4993876;28;47107;-75
2022/02/21 12:42:08;;;;;;;;;5.25;3.00;;;;;;;;4994006;28;45305;-76
2022/02/21 12:44:33;;;;;;;;;4.50;3.75;;;;;;;;4994847;28;45460;-76
2022/02/21 12:47:05;;;;;;;;;6.00;5.00;;;;;;;;4994138;28;45440;-70
2022/02/21 12:49:34;;;;;;;;;5.50;3.75;;;;;;;;4993351;28;46408;-77
2022/02/21 12:52:06;;;;;;;;;7.00;5.00;;;;;;;;4993938;28;45313;-77
2022/02/21 12:54:32;;;;;;;;;8.00;4.00;;;;;;;;4994166;28;45285;-77
2022/02/21 12:57:02;;;;;;;;;6.50;3.25;;;;;;;;4993657;28;45700;-78
2022/02/21 12:59:28;;;;;;;;;5.50;3.00;;;;;;;;4993365;28;45471;-74
2022/02/21 13:01:55;;;;;;;;;5.25;3.00;;;;;;;;4994364;28;45379;-74
2022/02/21 13:04:21;;;;;;;;;2.00;1.50;;;;;;;;4994267;28;45428;-75
2022/02/21 13:06:47;;;;;;;;;6.25;5.25;;;;;;;;4994528;28;45461;-77
2022/02/21 13:09:12;;;;;;;;;5.50;4.50;;;;;;;;4993317;28;47074;-76
2022/02/21 13:11:39;;;;;;;;;6.00;3.75;;;;;;;;4993506;28;45551;-78
2022/02/21 13:14:06;;;;;;;;;2.00;2.00;;;;;;;;4993784;28;45354;-76
2022/02/21 13:16:33;;;;;;;;;3.00;3.00;;;;;;;;4994409;28;45452;-77
2022/02/21 13:19:02;;;;;;;;;7.25;4.25;;;;;;;;4993370;28;45501;-78
2022/02/21 13:21:34;;;;;;;;;7.25;4.00;;;;;;;;4993987;28;45455;-78
2022/02/21 13:23:59;;;;;;;;;9.00;6.00;;;;;;;;4994342;28;45454;-77
2022/02/21 13:26:25;;;;;;;;;4.50;3.00;;;;;;;;4994457;28;45456;-78
2022/02/21 13:28:50;;;;;;;;;6.75;5.75;;;;;;;;4994556;28;46013;-79
2022/02/21 13:31:16;;;;;;;;;6.50;5.00;;;;;;;;4993962;28;45334;-79
2022/02/21 13:33:41;;;;;;;;;5.25;5.25;;;;;;;;4994408;28;45416;-77
2022/02/21 13:36:07;;;;;;;;;6.00;4.75;;;;;;;;4994808;28;45463;-78
2022/02/21 13:38:33;;;;;;;;;10.25;3.25;;;;;;;;4994642;28;45411;-78
2022/02/21 13:40:59;;;;;;;;;10.00;6.75;;;;;;;;4994533;28;45526;-79
2022/02/21 13:43:24;;;;;;;;;7.50;3.75;;;;;;;;4994969;28;45528;-79
2022/02/21 13:45:52;;;;;;;;;6.25;5.00;;;;;;;;4993951;28;45525;-80
2022/02/21 13:48:23;;;;;;;;;13.00;8.75;;;;;;;;4994095;28;46172;-79
2022/02/21 13:50:51;;;;;;;;;7.25;5.25;;;;;;;;4993538;28;45379;-78
2022/02/21 13:53:32;;;;;;;;;9.25;6.00;;;;;;;;4993981;28;45468;-79
2022/02/21 13:56:02;;;;;;;;;8.25;4.00;;;;;;;;4990592;28;45479;-78
2022/02/21 13:58:32;;;;;;;;;10.25;5.75;;;;;;;;4994043;28;45476;-79
2022/02/21 14:01:11;;;;;;;;;7.25;4.00;;;;;;;;4993160;28;45629;-78
2022/02/21 14:03:38;;;;;;;;;6.75;5.75;;;;;;;;4994051;28;45375;-76
2022/02/21 14:06:06;;;;;;;;;9.25;5.00;;;;;;;;4993291;28;45557;-78
2022/02/21 14:08:35;;;;;;;;;7.00;5.00;;;;;;;;4994129;28;46279;-77
2022/02/21 14:11:00;;;;;;;;;5.25;4.25;;;;;;;;4994336;28;45438;-76
2022/02/21 14:13:25;;;;;;;;;8.00;6.00;;;;;;;;4976227;28;45335;-77
2022/02/21 14:15:54;;;;;;;;;3.75;3.75;;;;;;;;4992862;28;45535;-78
2022/02/21 14:18:19;;;;;;;;;10.75;9.25;;;;;;;;4993248;28;46213;-77
2022/02/21 14:20:44;;;;;;;;;11.00;9.00;;;;;;;;4975245;28;45480;-78
2022/02/21 14:23:09;;;;;;;;;6.00;3.00;;;;;;;;4992664;28;45455;-76
2022/02/21 14:25:34;;;;;;;;;9.50;7.00;;;;;;;;4993573;28;45606;-76
2022/02/21 14:28:00;;;;;;;;;9.25;7.75;;;;;;;;4992617;28;46334;-79
2022/02/21 14:30:27;;;;;;;;;6.75;6.50;;;;;;;;4992658;28;45296;-76
2022/02/21 14:32:52;;;;;;;;;10.00;4.75;;;;;;;;4993164;28;45595;-75
2022/02/21 14:35:18;;;;;;;;;6.50;5.00;;;;;;;;4993259;28;45369;-76
2022/02/21 14:37:43;;;;;;;;;6.75;5.50;;;;;;;;4992863;28;46933;-78